Time;durP1;ratioP1;P1;durP2;ratioP2;P2;SDS_P1;SDS_P2;PMS_P1;PMS_P2;Temp;Humidity;BMP_temperature;BMP_pressure;BME280_temperature;BME280_humidity;BME280_pressure;Samples;Min_cycle;Max_cycle;Signal;HPM_P1;HPM_P2
2021/10/05 00:00:26;;;;;;;35.00;25.27;;;26.10;99.90;;;;;;5032312;28;20053;-59
2021/10/05 00:02:52;;;;;;;31.65;23.42;;;26.10;99.90;;;;;;5034163;28;20444;-59
2021/10/05 00:05:17;;;;;;;36.35;24.35;;;26.10;99.90;;;;;;5032075;28;20033;-59
2021/10/05 00:07:43;;;;;;;31.30;23.35;;;26.10;99.90;;;;;;5034543;28;20034;-59
2021/10/05 00:10:10;;;;;;;34.40;24.33;;;26.20;99.90;;;;;;5032898;28;20036;-59
2021/10/05 00:12:36;;;;;;;32.13;22.98;;;26.00;99.90;;;;;;5033590;28;20045;-59
2021/10/05 00:15:03;;;;;;;35.38;22.48;;;26.20;99.90;;;;;;5030318;28;20033;-59
2021/10/05 00:17:29;;;;;;;29.63;21.80;;;26.10;99.90;;;;;;5032047;28;20056;-59
2021/10/05 00:19:54;;;;;;;29.67;23.27;;;26.10;99.90;;;;;;5032632;28;20480;-59
2021/10/05 00:22:20;;;;;;;35.47;23.33;;;26.00;99.90;;;;;;5033354;28;20103;-59
2021/10/05 00:24:46;;;;;;;30.63;23.05;;;26.10;99.90;;;;;;5031589;28;20187;-59
2021/10/05 00:27:11;;;;;;;36.42;22.67;;;26.10;99.90;;;;;;5033633;28;20022;-59
2021/10/05 00:29:37;;;;;;;32.30;21.85;;;25.90;99.90;;;;;;5033271;28;20039;-59
2021/10/05 00:32:04;;;;;;;32.45;21.23;;;26.10;99.90;;;;;;5033888;28;20116;-59
2021/10/05 00:34:30;;;;;;;30.50;20.85;;;26.00;99.90;;;;;;5034874;28;20083;-59
2021/10/05 00:36:56;;;;;;;29.98;21.55;;;26.10;99.90;;;;;;5049955;28;20024;-60
2021/10/05 00:39:22;;;;;;;26.73;19.77;;;26.10;99.90;;;;;;5034593;28;20494;-59
2021/10/05 00:41:48;;;;;;;26.58;20.00;;;25.90;99.90;;;;;;5053650;28;20029;-59
2021/10/05 00:44:14;;;;;;;25.50;19.17;;;25.90;99.90;;;;;;5043238;28;20056;-60
2021/10/05 00:46:39;;;;;;;26.55;18.67;;;25.90;99.90;;;;;;5032917;28;20387;-59
2021/10/05 00:49:05;;;;;;;29.45;19.30;;;26.00;99.90;;;;;;5032198;28;20344;-59
2021/10/05 00:51:31;;;;;;;23.75;18.08;;;25.90;99.90;;;;;;5053256;28;20544;-59
2021/10/05 00:53:57;;;;;;;23.67;18.25;;;25.70;99.90;;;;;;5044041;28;20112;-59
2021/10/05 00:56:23;;;;;;;23.42;17.58;;;25.80;99.90;;;;;;5032407;28;20112;-60
2021/10/05 00:58:49;;;;;;;24.35;17.55;;;25.60;99.90;;;;;;5032280;28;20372;-59
2021/10/05 01:01:16;;;;;;;24.52;18.23;;;25.60;99.90;;;;;;5039814;28;20457;-59
2021/10/05 01:03:42;;;;;;;24.70;18.35;;;25.90;99.90;;;;;;5030783;28;20037;-59
2021/10/05 01:06:08;;;;;;;21.75;16.73;;;26.00;99.90;;;;;;5031635;28;20029;-59
2021/10/05 01:08:34;;;;;;;24.58;17.58;;;25.80;99.90;;;;;;5040596;28;20033;-59
2021/10/05 01:11:00;;;;;;;23.08;17.05;;;25.90;99.90;;;;;;5031741;28;20063;-59
2021/10/05 01:13:27;;;;;;;25.55;18.17;;;26.10;99.90;;;;;;5033052;28;20116;-60
2021/10/05 01:15:52;;;;;;;25.85;17.77;;;26.10;99.90;;;;;;5030259;28;20040;-60
2021/10/05 01:18:18;;;;;;;25.13;18.52;;;26.10;99.90;;;;;;5032827;28;20034;-59
2021/10/05 01:20:59;;;;;;;22.80;16.10;;;26.30;99.90;;;;;;5032280;28;20033;-59
2021/10/05 01:23:26;;;;;;;27.17;18.83;;;26.30;99.90;;;;;;5032203;28;20055;-59
2021/10/05 01:25:53;;;;;;;23.27;17.35;;;26.40;99.90;;;;;;5032179;28;20029;-59
2021/10/05 01:28:24;;;;;;;24.98;17.85;;;26.30;99.90;;;;;;5032290;28;20025;-59
2021/10/05 01:30:50;;;;;;;24.08;18.30;;;26.30;99.90;;;;;;5042363;28;20490;-59
2021/10/05 01:33:17;;;;;;;23.70;17.75;;;26.30;99.90;;;;;;5033009;28;20364;-59
2021/10/05 01:35:42;;;;;;;20.85;17.15;;;26.20;99.90;;;;;;5031966;28;20132;-60
2021/10/05 01:38:08;;;;;;;23.00;16.73;;;26.20;99.90;;;;;;5046984;28;20526;-60
2021/10/05 01:40:34;;;;;;;25.23;17.75;;;26.10;99.90;;;;;;5042330;28;20154;-60
2021/10/05 01:42:59;;;;;;;20.30;16.52;;;26.20;99.90;;;;;;5039908;28;20518;-60
2021/10/05 01:45:25;;;;;;;20.67;16.55;;;26.20;99.90;;;;;;5032089;28;20117;-60
2021/10/05 01:47:51;;;;;;;23.30;17.90;;;26.20;99.90;;;;;;5028069;28;20045;-59
2021/10/05 01:50:18;;;;;;;20.02;16.25;;;26.20;99.90;;;;;;5026859;28;20079;-59
2021/10/05 01:52:44;;;;;;;24.33;17.98;;;26.10;99.90;;;;;;5031378;28;20022;-60
2021/10/05 01:55:10;;;;;;;26.33;18.77;;;26.20;99.90;;;;;;5031361;28;20032;-60
2021/10/05 01:57:35;;;;;;;25.42;17.77;;;26.10;99.90;;;;;;5032882;28;20030;-60
2021/10/05 02:00:01;;;;;;;24.65;18.38;;;26.20;99.90;;;;;;5031777;28;20033;-60
2021/10/05 02:02:27;;;;;;;23.63;17.55;;;26.00;99.90;;;;;;5036401;28;20410;-60
2021/10/05 02:04:52;;;;;;;21.27;17.65;;;26.20;99.90;;;;;;5038647;28;20170;-60
2021/10/05 02:07:18;;;;;;;23.02;18.15;;;26.30;99.90;;;;;;5056823;28;20044;-60
2021/10/05 02:09:50;;;;;;;20.48;16.63;;;26.20;99.90;;;;;;5037785;28;20069;-60
2021/10/05 02:12:17;;;;;;;23.58;16.40;;;26.30;99.90;;;;;;5022117;28;20368;-60
2021/10/05 02:14:44;;;;;;;23.25;17.48;;;26.30;99.90;;;;;;5029538;28;20156;-60
2021/10/05 02:17:10;;;;;;;24.33;17.75;;;26.30;99.90;;;;;;5038929;28;20036;-59
2021/10/05 02:19:37;;;;;;;24.48;17.98;;;26.20;99.90;;;;;;5034915;28;20026;-60
2021/10/05 02:22:03;;;;;;;24.08;18.63;;;26.20;99.90;;;;;;5028526;28;20030;-60
2021/10/05 02:26:59;;;;;;;24.85;19.13;;;25.90;99.90;;;;;;5050293;28;20039;-60
2021/10/05 02:29:24;;;;;;;24.52;19.02;;;26.00;99.90;;;;;;5035061;28;20479;-60
2021/10/05 02:31:51;;;;;;;26.95;20.25;;;26.10;99.90;;;;;;5034831;28;20064;-60
2021/10/05 02:34:16;;;;;;;29.98;20.20;;;26.10;99.90;;;;;;5036528;28;20048;-60
2021/10/05 02:36:43;;;;;;;24.52;18.75;;;26.20;99.90;;;;;;5035139;28;20025;-60
2021/10/05 02:39:09;;;;;;;27.55;20.98;;;26.20;99.90;;;;;;5028957;28;20101;-60
2021/10/05 02:41:35;;;;;;;26.52;20.27;;;26.10;99.90;;;;;;5034812;28;20025;-60
2021/10/05 02:44:01;;;;;;;29.90;22.02;;;26.20;99.90;;;;;;5029810;28;20505;-60
2021/10/05 02:46:27;;;;;;;24.67;20.42;;;26.20;99.90;;;;;;5035054;28;20022;-60
2021/10/05 02:48:53;;;;;;;32.95;22.88;;;26.20;99.90;;;;;;5035528;28;20053;-60
2021/10/05 02:51:19;;;;;;;27.88;21.30;;;26.20;99.90;;;;;;5036232;28;20057;-60
2021/10/05 02:53:45;;;;;;;30.17;21.27;;;26.20;99.90;;;;;;5033053;28;20114;-59
2021/10/05 02:56:11;;;;;;;26.33;21.38;;;26.30;99.90;;;;;;5028407;28;20029;-60
2021/10/05 02:58:37;;;;;;;31.13;22.05;;;26.30;99.90;;;;;;5035245;28;20105;-60
2021/10/05 03:01:02;;;;;;;28.10;21.85;;;26.40;99.90;;;;;;5043995;28;20131;-60
2021/10/05 03:03:28;;;;;;;28.50;22.20;;;26.30;99.90;;;;;;5042085;28;20040;-59
2021/10/05 03:05:54;;;;;;;25.92;21.25;;;26.20;99.90;;;;;;5034621;28;20079;-59
2021/10/05 03:08:19;;;;;;;31.05;22.52;;;26.20;99.90;;;;;;5033754;28;20068;-59
2021/10/05 03:10:45;;;;;;;27.67;19.73;;;26.30;99.90;;;;;;5033314;28;20022;-59
2021/10/05 03:13:10;;;;;;;30.02;22.35;;;26.30;99.90;;;;;;5034479;28;20491;-60
2021/10/05 03:15:36;;;;;;;25.65;19.92;;;26.40;99.90;;;;;;5033901;28;20048;-60
2021/10/05 03:18:01;;;;;;;30.42;22.17;;;26.50;99.90;;;;;;5055311;28;20052;-60
2021/10/05 03:20:27;;;;;;;30.55;22.35;;;26.50;99.90;;;;;;5037193;28;20473;-59
2021/10/05 03:22:53;;;;;;;24.17;20.10;;;26.50;99.90;;;;;;5034229;28;20033;-60
2021/10/05 03:25:30;;;;;;;30.35;21.80;;;26.60;99.90;;;;;;5032875;28;20113;-59
2021/10/05 03:27:56;;;;;;;45.90;26.50;;;26.50;99.90;;;;;;5022699;28;20531;-58
2021/10/05 03:30:22;;;;;;;43.20;27.23;;;26.20;99.90;;;;;;5032140;28;20171;-58
2021/10/05 03:32:47;;;;;;;46.42;27.98;;;26.00;99.90;;;;;;5034250;28;20395;-58
2021/10/05 03:35:13;;;;;;;39.30;25.17;;;26.30;99.90;;;;;;5033588;28;20037;-58
2021/10/05 03:37:39;;;;;;;36.38;24.35;;;26.20;99.90;;;;;;5034977;28;20022;-58
2021/10/05 03:40:06;;;;;;;42.17;26.33;;;26.20;99.90;;;;;;5031681;28;20041;-58
2021/10/05 03:42:32;;;;;;;44.75;27.02;;;26.30;99.90;;;;;;5033208;28;20040;-57
2021/10/05 03:44:58;;;;;;;41.63;25.08;;;26.20;99.90;;;;;;5032529;28;20044;-57
2021/10/05 03:47:24;;;;;;;37.95;25.77;;;26.20;99.90;;;;;;5032445;28;20030;-58
2021/10/05 03:49:49;;;;;;;34.60;25.23;;;26.10;99.90;;;;;;5033473;28;20033;-58
2021/10/05 03:52:15;;;;;;;39.35;26.13;;;26.10;99.90;;;;;;5053289;28;20017;-58
2021/10/05 03:54:42;;;;;;;39.90;26.65;;;25.80;99.90;;;;;;5043519;28;20117;-58
2021/10/05 03:57:08;;;;;;;37.00;24.52;;;25.40;99.90;;;;;;5033032;28;20391;-59
2021/10/05 03:59:34;;;;;;;36.28;24.95;;;25.20;99.90;;;;;;5031971;28;20033;-59
2021/10/05 04:01:59;;;;;;;39.17;25.50;;;25.60;99.90;;;;;;5045780;28;20396;-59
2021/10/05 04:04:25;;;;;;;34.65;23.92;;;25.60;99.90;;;;;;5034621;28;20030;-59
2021/10/05 04:06:50;;;;;;;36.40;22.92;;;25.70;99.90;;;;;;5032936;28;20095;-59
2021/10/05 04:09:16;;;;;;;35.33;24.63;;;25.60;99.90;;;;;;5033485;28;20026;-59
2021/10/05 04:11:41;;;;;;;34.63;22.75;;;25.60;99.90;;;;;;5035574;28;20045;-59
2021/10/05 04:14:07;;;;;;;36.83;25.50;;;25.60;99.90;;;;;;5034013;28;20333;-59
2021/10/05 04:16:33;;;;;;;42.83;25.63;;;25.70;99.90;;;;;;5032365;28;20445;-60
2021/10/05 04:18:58;;;;;;;34.00;24.38;;;25.60;99.90;;;;;;5033434;28;20017;-60
2021/10/05 04:21:24;;;;;;;37.05;24.38;;;25.70;99.90;;;;;;5037563;28;20368;-59
2021/10/05 04:23:49;;;;;;;38.38;24.17;;;25.70;99.90;;;;;;5033478;28;20026;-60
2021/10/05 04:26:15;;;;;;;36.17;24.45;;;25.70;99.90;;;;;;5032571;28;20083;-59
2021/10/05 04:28:41;;;;;;;32.63;23.00;;;25.70;99.90;;;;;;5032639;28;20033;-59
2021/10/05 04:31:06;;;;;;;35.75;23.95;;;25.40;99.90;;;;;;5033910;28;20036;-59
2021/10/05 04:33:32;;;;;;;36.45;25.13;;;25.50;99.90;;;;;;5041806;28;20052;-60
2021/10/05 04:35:58;;;;;;;34.67;21.98;;;25.60;99.90;;;;;;5036371;28;20032;-60
2021/10/05 04:38:24;;;;;;;35.47;24.30;;;25.60;99.90;;;;;;5031887;28;20033;-60
2021/10/05 04:40:50;;;;;;;41.75;25.90;;;25.50;99.90;;;;;;5031810;28;20084;-60
2021/10/05 04:43:16;;;;;;;36.95;25.17;;;25.60;99.90;;;;;;5032138;28;20069;-60
2021/10/05 04:45:41;;;;;;;39.88;26.67;;;25.60;99.90;;;;;;5032616;28;20144;-60
2021/10/05 04:48:08;;;;;;;40.33;25.58;;;25.80;99.90;;;;;;5032752;28;20112;-58
2021/10/05 04:50:35;;;;;;;36.85;26.08;;;25.70;99.90;;;;;;5032480;28;20026;-59
2021/10/05 04:53:01;;;;;;;35.72;25.02;;;25.80;99.90;;;;;;5033019;28;20025;-59
2021/10/05 04:55:27;;;;;;;36.05;25.35;;;25.70;99.90;;;;;;5031840;28;20120;-60
2021/10/05 04:57:53;;;;;;;38.72;25.85;;;25.80;99.90;;;;;;5040373;28;20075;-60
2021/10/05 05:00:18;;;;;;;42.35;27.50;;;25.90;99.90;;;;;;5033310;28;20045;-60
2021/10/05 05:02:44;;;;;;;38.22;26.38;;;25.90;99.90;;;;;;5031830;28;20057;-60
2021/10/05 05:05:10;;;;;;;41.45;27.02;;;25.90;99.90;;;;;;5035532;28;20106;-60
2021/10/05 05:07:37;;;;;;;42.65;28.63;;;25.90;99.90;;;;;;5040215;28;20077;-58
2021/10/05 05:10:05;;;;;;;39.80;26.30;;;26.00;99.90;;;;;;5032424;28;20068;-58
2021/10/05 05:12:30;;;;;;;41.90;26.98;;;25.90;99.90;;;;;;5031195;28;20025;-59
2021/10/05 05:14:57;;;;;;;41.53;26.85;;;26.00;99.90;;;;;;5032087;28;20468;-59
2021/10/05 05:17:23;;;;;;;41.13;28.52;;;26.10;99.90;;;;;;5038396;28;20060;-59
2021/10/05 05:19:48;;;;;;;38.08;27.08;;;26.10;99.90;;;;;;5031771;28;20076;-59
2021/10/05 05:22:14;;;;;;;36.88;24.60;;;26.00;99.90;;;;;;5031729;28;20032;-58
2021/10/05 05:24:39;;;;;;;37.10;25.90;;;26.10;99.90;;;;;;5030871;28;20131;-59
2021/10/05 05:27:05;;;;;;;43.20;28.40;;;26.00;99.90;;;;;;5043872;28;20029;-58
2021/10/05 05:29:31;;;;;;;39.67;26.77;;;26.10;99.90;;;;;;5030932;28;20053;-60
2021/10/05 05:31:58;;;;;;;37.35;26.48;;;25.90;99.90;;;;;;5023014;28;20494;-59
2021/10/05 05:34:25;;;;;;;39.70;26.75;;;26.00;99.90;;;;;;5031315;28;20036;-59
2021/10/05 05:36:51;;;;;;;40.00;26.40;;;26.10;99.90;;;;;;5038042;28;20029;-59
2021/10/05 05:39:16;;;;;;;38.50;27.70;;;26.00;99.90;;;;;;5030326;28;20538;-59
2021/10/05 05:41:45;;;;;;;36.10;26.08;;;26.00;99.90;;;;;;5030516;28;20053;-59
2021/10/05 05:44:14;;;;;;;38.97;27.92;;;25.90;99.90;;;;;;5032007;28;20099;-59
2021/10/05 05:46:41;;;;;;;35.83;26.38;;;25.90;99.90;;;;;;5030989;28;20028;-59
2021/10/05 05:49:06;;;;;;;41.20;28.33;;;25.90;99.90;;;;;;5030132;28;20028;-58
2021/10/05 05:51:32;;;;;;;33.75;25.58;;;25.90;99.90;;;;;;5035725;28;20025;-59
2021/10/05 05:53:58;;;;;;;32.42;23.30;;;25.80;99.90;;;;;;5030147;28;20025;-59
2021/10/05 05:56:24;;;;;;;37.28;26.73;;;26.10;99.90;;;;;;5031481;28;20032;-60
2021/10/05 05:58:52;;;;;;;37.17;25.63;;;26.20;99.90;;;;;;5031114;28;20029;-60
2021/10/05 06:01:21;;;;;;;34.85;26.42;;;26.20;99.90;;;;;;5030379;28;20049;-60
2021/10/05 06:03:49;;;;;;;37.92;25.70;;;26.40;99.90;;;;;;5031889;28;20025;-60
2021/10/05 06:06:15;;;;;;;38.33;27.15;;;26.50;99.90;;;;;;5029841;28;20484;-60
2021/10/05 06:08:41;;;;;;;38.25;27.30;;;26.60;99.90;;;;;;5031106;28;20439;-60
2021/10/05 06:11:07;;;;;;;32.35;23.42;;;26.70;99.90;;;;;;5030394;28;20030;-60
2021/10/05 06:13:32;;;;;;;37.22;24.50;;;26.70;99.90;;;;;;5026941;28;20026;-59
2021/10/05 06:15:58;;;;;;;33.30;24.10;;;26.80;99.90;;;;;;5013668;28;20038;-59
2021/10/05 06:18:23;;;;;;;37.80;24.10;;;26.80;99.90;;;;;;5032657;28;20026;-60
2021/10/05 06:20:49;;;;;;;34.60;23.88;;;27.00;99.90;;;;;;5031573;28;20033;-60
2021/10/05 06:23:15;;;;;;;37.00;23.13;;;26.90;99.90;;;;;;5032223;28;20116;-60
2021/10/05 06:25:42;;;;;;;31.20;22.98;;;26.70;99.90;;;;;;5030612;28;20033;-60
2021/10/05 06:28:08;;;;;;;31.50;23.30;;;27.00;99.90;;;;;;5030807;28;20049;-60
2021/10/05 06:30:35;;;;;;;29.08;21.70;;;26.80;99.90;;;;;;5032232;28;20163;-61
2021/10/05 06:33:01;;;;;;;32.08;22.30;;;26.80;99.90;;;;;;5038653;28;20029;-60
2021/10/05 06:35:30;;;;;;;32.38;23.67;;;26.50;99.90;;;;;;5025228;28;20028;-59
2021/10/05 06:37:59;;;;;;;34.75;23.55;;;26.70;99.90;;;;;;5030400;28;20029;-59
2021/10/05 06:40:26;;;;;;;33.85;24.23;;;26.80;99.90;;;;;;5030773;28;20382;-60
2021/10/05 06:42:52;;;;;;;29.50;21.08;;;26.70;99.90;;;;;;5034765;28;20393;-59
2021/10/05 06:45:18;;;;;;;29.23;22.00;;;26.70;99.90;;;;;;5032293;28;20060;-60
2021/10/05 06:47:45;;;;;;;28.90;21.02;;;26.50;99.90;;;;;;5030675;28;20035;-61
2021/10/05 06:50:11;;;;;;;26.55;21.30;;;26.60;99.90;;;;;;5026456;28;20077;-60
2021/10/05 06:52:37;;;;;;;29.17;21.30;;;26.70;99.90;;;;;;5037889;28;20029;-61
2021/10/05 06:55:03;;;;;;;25.50;20.27;;;27.10;99.90;;;;;;5034375;28;20030;-61
2021/10/05 06:57:29;;;;;;;26.50;19.90;;;27.10;99.90;;;;;;5039120;28;20491;-61
2021/10/05 06:59:54;;;;;;;25.00;19.15;;;27.20;99.90;;;;;;5035366;28;20026;-61
2021/10/05 07:02:20;;;;;;;25.17;18.88;;;27.10;99.90;;;;;;5027804;28;20041;-60
2021/10/05 07:04:46;;;;;;;22.42;17.17;;;27.20;99.90;;;;;;5035029;28;20072;-61
2021/10/05 07:07:11;;;;;;;21.98;16.83;;;27.10;99.90;;;;;;5033548;28;20029;-60
2021/10/05 07:09:37;;;;;;;19.23;16.35;;;26.90;99.90;;;;;;5034092;28;20053;-60
2021/10/05 07:12:03;;;;;;;33.85;17.67;;;27.10;99.90;;;;;;5033640;28;20084;-60
2021/10/05 07:14:29;;;;;;;38.28;19.48;;;27.00;99.90;;;;;;5033174;28;20399;-60
2021/10/05 07:16:54;;;;;;;32.00;17.77;;;26.90;99.90;;;;;;5032646;28;20021;-60
2021/10/05 07:19:20;;;;;;;31.35;16.40;;;27.00;99.90;;;;;;5033556;28;20540;-60
2021/10/05 07:21:45;;;;;;;24.30;15.27;;;26.60;99.90;;;;;;5032488;28;20463;-61
2021/10/05 07:24:11;;;;;;;18.65;13.55;;;26.70;99.90;;;;;;5040080;28;20041;-60
2021/10/05 07:26:37;;;;;;;21.13;13.02;;;26.70;99.90;;;;;;5034404;28;20475;-60
2021/10/05 07:29:02;;;;;;;16.60;13.45;;;26.60;99.90;;;;;;5027319;28;20105;-60
2021/10/05 07:31:31;;;;;;;17.92;12.07;;;26.50;99.90;;;;;;5040663;28;20127;-60
2021/10/05 07:33:57;;;;;;;16.65;12.75;;;26.40;99.90;;;;;;5050250;28;20498;-60
2021/10/05 07:36:22;;;;;;;13.43;11.23;;;26.50;99.90;;;;;;5052549;28;20025;-60
2021/10/05 07:38:48;;;;;;;13.65;10.32;;;26.40;99.90;;;;;;5037159;28;20033;-60
2021/10/05 07:41:14;;;;;;;13.35;9.60;;;26.50;99.90;;;;;;5033337;28;20084;-61
2021/10/05 07:43:39;;;;;;;34.42;12.13;;;26.20;99.90;;;;;;5052774;28;20033;-60
2021/10/05 07:46:05;;;;;;;15.00;9.48;;;26.40;99.90;;;;;;5031536;28;20036;-60
2021/10/05 07:48:30;;;;;;;19.70;10.10;;;26.70;99.90;;;;;;5035608;28;20479;-61
2021/10/05 07:50:56;;;;;;;15.13;9.70;;;26.80;99.90;;;;;;5033984;28;20033;-61
2021/10/05 07:53:22;;;;;;;14.95;10.60;;;26.80;99.90;;;;;;5050177;28;20074;-60
2021/10/05 07:55:48;;;;;;;14.43;8.73;;;26.80;99.90;;;;;;5046167;28;20384;-60
2021/10/05 07:58:13;;;;;;;17.65;9.52;;;26.70;99.90;;;;;;5033356;28;20738;-60
2021/10/05 08:00:39;;;;;;;15.25;8.85;;;26.60;99.90;;;;;;5032499;28;20057;-60
2021/10/05 08:03:04;;;;;;;17.90;8.63;;;26.90;99.90;;;;;;5032457;28;20376;-60
2021/10/05 08:05:30;;;;;;;10.18;5.93;;;26.90;99.90;;;;;;5033237;28;20447;-60
2021/10/05 08:08:07;;;;;;;15.13;6.30;;;27.00;99.90;;;;;;5031281;28;20025;-61
2021/10/05 08:10:33;;;;;;;12.95;6.88;;;26.90;99.90;;;;;;5033969;28;20357;-60
2021/10/05 08:12:59;;;;;;;14.45;6.68;;;27.00;99.90;;;;;;5041074;28;20380;-60
2021/10/05 08:15:26;;;;;;;21.25;13.23;;;27.00;99.90;;;;;;5033577;28;20021;-60
2021/10/05 08:17:52;;;;;;;12.55;6.13;;;27.00;99.90;;;;;;5032341;28;20029;-60
2021/10/05 08:20:17;;;;;;;6.72;4.40;;;27.00;99.90;;;;;;5032941;28;20026;-60
2021/10/05 08:22:43;;;;;;;16.75;10.18;;;27.10;99.90;;;;;;5034699;28;20077;-60
2021/10/05 08:25:08;;;;;;;11.50;5.35;;;27.30;99.90;;;;;;5032702;28;20490;-60
2021/10/05 08:27:34;;;;;;;6.80;3.70;;;27.40;99.90;;;;;;5028399;28;20100;-61
2021/10/05 08:30:00;;;;;;;6.90;3.90;;;27.30;99.90;;;;;;5031856;28;20029;-60
2021/10/05 08:32:25;;;;;;;8.38;3.72;;;27.30;99.90;;;;;;5032109;28;20030;-60
2021/10/05 08:34:51;;;;;;;12.45;4.15;;;27.40;99.90;;;;;;5033020;28;20109;-60
2021/10/05 08:37:17;;;;;;;7.10;3.67;;;27.40;99.90;;;;;;5033001;28;20108;-60
2021/10/05 08:39:42;;;;;;;7.95;4.15;;;27.40;99.90;;;;;;5033494;28;20030;-60
2021/10/05 08:42:08;;;;;;;5.88;2.58;;;27.20;99.90;;;;;;5031824;28;20064;-61
2021/10/05 08:44:34;;;;;;;8.48;2.88;;;27.40;99.90;;;;;;5032712;28;20455;-61
2021/10/05 08:47:00;;;;;;;10.05;2.50;;;27.40;99.90;;;;;;5035213;28;20387;-60
2021/10/05 08:49:26;;;;;;;6.60;3.13;;;27.40;99.90;;;;;;5020650;28;20029;-61
2021/10/05 08:51:54;;;;;;;5.70;2.63;;;27.40;99.90;;;;;;5018497;28;20402;-61
2021/10/05 08:54:21;;;;;;;6.88;3.30;;;27.30;99.90;;;;;;5033419;28;20418;-60
2021/10/05 08:56:47;;;;;;;14.63;8.18;;;27.30;99.90;;;;;;5031193;28;20037;-61
2021/10/05 08:59:13;;;;;;;5.53;2.83;;;27.30;99.90;;;;;;5040332;28;20022;-62
2021/10/05 09:01:39;;;;;;;26.33;19.80;;;27.50;99.90;;;;;;5043933;28;20123;-61
2021/10/05 09:04:06;;;;;;;8.18;2.70;;;27.50;99.90;;;;;;5028822;28;20452;-61
2021/10/05 09:06:33;;;;;;;21.17;12.35;;;27.50;99.90;;;;;;5030733;28;20036;-60
2021/10/05 09:09:01;;;;;;;14.52;8.15;;;27.40;99.90;;;;;;5037756;28;20033;-60
2021/10/05 09:11:37;;;;;;;9.52;4.22;;;27.40;99.90;;;;;;5031019;28;20034;-60
2021/10/05 09:14:03;;;;;;;8.85;3.25;;;27.60;99.90;;;;;;5038502;28;20375;-60
2021/10/05 09:16:30;;;;;;;9.55;3.33;;;27.50;99.90;;;;;;5033191;28;20036;-60
2021/10/05 09:19:02;;;;;;;8.70;3.67;;;27.60;99.90;;;;;;5038432;28;20103;-60
2021/10/05 09:21:33;;;;;;;11.02;2.28;;;27.50;99.90;;;;;;5032488;28;20025;-61
2021/10/05 09:24:05;;;;;;;9.48;2.00;;;27.40;99.90;;;;;;5032734;28;20044;-61
2021/10/05 09:26:50;;;;;;;7.55;1.77;;;27.20;99.90;;;;;;5032657;28;20018;-61
2021/10/05 09:29:27;;;;;;;6.90;2.30;;;27.30;99.90;;;;;;5026210;28;20033;-61
2021/10/05 09:32:00;;;;;;;8.52;2.50;;;27.40;99.90;;;;;;5031211;28;20022;-61
2021/10/05 09:34:35;;;;;;;4.18;2.00;;;27.50;99.90;;;;;;5032003;28;20021;-60
2021/10/05 09:37:20;;;;;;;5.68;2.42;;;27.60;99.90;;;;;;5031166;28;20111;-61
2021/10/05 09:39:46;;;;;;;8.02;2.63;;;27.40;99.90;;;;;;5029313;28;20040;-61
2021/10/05 09:42:28;;;;;;;5.60;1.98;;;27.40;99.90;;;;;;5018188;28;20030;-60
2021/10/05 09:45:02;;;;;;;6.88;2.08;;;27.60;99.90;;;;;;5030256;28;20395;-61
2021/10/05 09:47:38;;;;;;;6.50;1.90;;;27.70;99.90;;;;;;5034924;28;20146;-61
2021/10/05 09:50:28;;;;;;;7.95;2.90;;;27.80;99.90;;;;;;5044650;28;20088;-61
2021/10/05 09:52:59;;;;;;;5.20;2.08;;;27.90;99.50;;;;;;5043314;28;20041;-60
2021/10/05 09:55:28;;;;;;;11.90;2.53;;;28.00;99.90;;;;;;5041799;28;20048;-60
2021/10/05 09:57:54;;;;;;;6.38;2.33;;;28.00;99.90;;;;;;5029583;28;20471;-61
2021/10/05 10:00:23;;;;;;;10.27;2.50;;;27.80;99.90;;;;;;5035014;28;20108;-61
2021/10/05 10:02:49;;;;;;;8.60;2.40;;;27.90;99.90;;;;;;5030901;28;20439;-62
2021/10/05 10:05:18;;;;;;;5.82;2.03;;;27.90;99.90;;;;;;5027780;28;20391;-61
2021/10/05 10:07:49;;;;;;;8.27;1.83;;;27.70;99.90;;;;;;5029169;28;20026;-61
2021/10/05 10:10:18;;;;;;;7.38;2.10;;;27.80;99.90;;;;;;5012457;28;20472;-61
2021/10/05 10:12:49;;;;;;;8.20;2.28;;;27.70;99.90;;;;;;5028205;28;20021;-61
2021/10/05 10:15:16;;;;;;;7.82;2.63;;;27.70;99.90;;;;;;5031772;28;20021;-61
2021/10/05 10:17:42;;;;;;;5.20;2.42;;;27.70;99.90;;;;;;5029547;28;20031;-61
2021/10/05 10:20:26;;;;;;;4.82;1.98;;;27.70;99.90;;;;;;5029411;28;20542;-62
2021/10/05 10:22:52;;;;;;;8.07;2.23;;;27.70;99.90;;;;;;5021800;28;20028;-61
2021/10/05 10:25:27;;;;;;;5.90;2.10;;;27.70;99.90;;;;;;5024063;28;20386;-61
2021/10/05 10:27:56;;;;;;;7.85;2.72;;;27.70;99.90;;;;;;5034947;28;20112;-61
2021/10/05 10:30:24;;;;;;;9.18;2.33;;;27.70;99.90;;;;;;5034115;28;20021;-61
2021/10/05 10:32:59;;;;;;;7.13;2.65;;;27.70;99.90;;;;;;5035325;28;20033;-61
2021/10/05 10:35:25;;;;;;;6.82;1.77;;;27.60;99.90;;;;;;5033619;28;20124;-61
2021/10/05 10:37:53;;;;;;;7.13;2.13;;;27.50;99.90;;;;;;5042769;28;20052;-61
2021/10/05 10:40:31;;;;;;;7.75;2.58;;;27.50;99.90;;;;;;5035455;28;20457;-60
2021/10/05 10:42:57;;;;;;;5.05;2.70;;;27.50;99.90;;;;;;5015497;28;20033;-61
2021/10/05 10:45:22;;;;;;;4.57;1.85;;;27.50;99.90;;;;;;5015844;28;20041;-61
2021/10/05 10:47:52;;;;;;;4.10;2.58;;;27.50;99.90;;;;;;5035412;28;20479;-60
2021/10/05 10:50:18;;;;;;;6.65;2.63;;;27.50;99.90;;;;;;5036134;28;20025;-60
2021/10/05 10:52:46;;;;;;;5.05;2.20;;;27.40;99.90;;;;;;5052602;28;20124;-60
2021/10/05 10:55:16;;;;;;;7.43;2.78;;;27.40;99.90;;;;;;5055592;28;20025;-61
2021/10/05 10:57:47;;;;;;;13.43;3.92;;;27.30;99.90;;;;;;5035954;28;20498;-60
2021/10/05 11:00:20;;;;;;;11.15;3.53;;;27.30;99.90;;;;;;5036214;28;20034;-60
2021/10/05 11:02:53;;;;;;;7.75;2.50;;;27.50;99.90;;;;;;5038170;28;20029;-61
2021/10/05 11:05:22;;;;;;;5.65;2.72;;;27.30;99.90;;;;;;5050701;28;20045;-60
2021/10/05 11:07:52;;;;;;;9.48;3.05;;;27.20;99.90;;;;;;5053197;28;20029;-61
2021/10/05 11:10:27;;;;;;;6.18;2.65;;;27.30;99.90;;;;;;5055672;28;20470;-60
2021/10/05 11:12:56;;;;;;;9.65;3.72;;;27.50;99.90;;;;;;5051774;28;20060;-60
2021/10/05 11:15:41;;;;;;;9.45;3.17;;;27.40;99.90;;;;;;5055244;28;20068;-61
2021/10/05 11:18:15;;;;;;;11.35;3.83;;;27.30;99.90;;;;;;5015824;28;20036;-61
2021/10/05 11:20:49;;;;;;;10.35;3.72;;;27.30;99.90;;;;;;5027484;28;20025;-60
2021/10/05 11:23:17;;;;;;;8.85;2.92;;;27.20;99.90;;;;;;5015268;28;20080;-60
2021/10/05 11:25:51;;;;;;;13.80;3.75;;;27.20;99.90;;;;;;5015713;28;20137;-60
2021/10/05 11:28:24;;;;;;;8.77;2.63;;;27.30;99.90;;;;;;5033580;28;20372;-60
2021/10/05 11:31:01;;;;;;;8.20;2.55;;;26.90;99.90;;;;;;5036208;28;20113;-60
2021/10/05 11:33:29;;;;;;;8.35;2.55;;;27.00;99.90;;;;;;5034317;28;20067;-60
2021/10/05 11:36:01;;;;;;;7.50;1.73;;;26.90;99.90;;;;;;5034321;28;20408;-60
2021/10/05 11:38:41;;;;;;;5.13;1.80;;;26.80;99.90;;;;;;5050384;28;20071;-60
2021/10/05 11:41:07;;;;;;;3.58;1.90;;;26.80;99.90;;;;;;5032594;28;20022;-60
2021/10/05 11:43:54;;;;;;;5.70;1.70;;;26.70;99.90;;;;;;5032429;28;20132;-60
2021/10/05 11:46:24;;;;;;;17.95;8.27;;;26.60;99.90;;;;;;5036589;28;20045;-60
2021/10/05 11:48:52;;;;;;;16.90;8.07;;;26.60;99.90;;;;;;5054687;28;20126;-60
2021/10/05 11:51:21;;;;;;;10.32;3.35;;;26.60;99.90;;;;;;5033312;28;20467;-60
2021/10/05 11:53:49;;;;;;;7.25;1.95;;;26.60;99.90;;;;;;5033410;28;20072;-60
2021/10/05 11:56:23;;;;;;;8.40;2.58;;;26.50;99.90;;;;;;5038523;28;20017;-60
2021/10/05 11:58:50;;;;;;;10.38;4.93;;;26.60;99.90;;;;;;5035131;28;20030;-60
2021/10/05 12:01:23;;;;;;;4.65;2.75;;;26.80;99.90;;;;;;5032113;28;20037;-60
2021/10/05 12:03:53;;;;;;;7.78;2.70;;;26.80;99.90;;;;;;5028207;28;20034;-60
2021/10/05 12:06:24;;;;;;;9.85;2.53;;;26.90;99.90;;;;;;5017165;28;20170;-60
2021/10/05 12:08:50;;;;;;;11.13;2.67;;;27.00;99.90;;;;;;5033664;28;20073;-60
2021/10/05 12:11:16;;;;;;;9.07;2.85;;;26.90;99.90;;;;;;5017690;28;20029;-60
2021/10/05 12:13:41;;;;;;;6.70;3.03;;;26.80;99.90;;;;;;5032810;28;20112;-61
2021/10/05 12:16:15;;;;;;;6.63;2.60;;;26.90;99.90;;;;;;5033269;28;20084;-60
2021/10/05 12:18:41;;;;;;;6.90;2.25;;;26.80;99.90;;;;;;5034475;28;20143;-60
2021/10/05 12:21:09;;;;;;;8.20;3.08;;;26.80;99.90;;;;;;5033527;28;20053;-61
2021/10/05 12:23:35;;;;;;;8.60;1.73;;;26.90;99.90;;;;;;5030894;28;20040;-60
2021/10/05 12:26:12;;;;;;;5.88;2.08;;;27.00;99.90;;;;;;5037337;28;20033;-60
2021/10/05 12:28:38;;;;;;;16.15;6.47;;;27.10;99.90;;;;;;5036385;28;20017;-61
2021/10/05 12:31:16;;;;;;;7.22;2.92;;;27.00;99.90;;;;;;5036977;28;20379;-61
2021/10/05 12:34:03;;;;;;;7.13;2.65;;;27.00;99.90;;;;;;5034631;28;20092;-60
2021/10/05 12:36:31;;;;;;;7.63;2.40;;;27.10;99.90;;;;;;5031889;28;20021;-60